sensor_id;sensor_type;location;lat;lon;timestamp;pressure;altitude;pressure_sealevel;temperature;humidity
11643;BME280;5877;50.930;6.918;2023-05-22T05:48:00;100771.28;;;25.64;50.26
11643;BME280;5877;50.930;6.918;2023-05-22T05:53:02;100775.31;;;27.14;47.80
11643;BME280;5877;50.930;6.918;2023-05-22T05:57:56;100782.25;;;27.97;44.59
11643;BME280;5877;50.930;6.918;2023-05-22T06:02:59;100667.34;;;25.99;46.46
11643;BME280;5877;50.930;6.918;2023-05-22T06:08:08;100790.78;;;25.69;49.22
11643;BME280;5877;50.930;6.918;2023-05-22T06:13:05;100750.13;;;24.32;52.42
11643;BME280;5877;50.930;6.918;2023-05-22T06:18:29;100789.84;;;24.02;54.70
11643;BME280;5877;50.930;6.918;2023-05-22T06:23:26;100669.53;;;23.27;53.90
11643;BME280;5877;50.930;6.918;2023-05-22T06:28:19;100739.38;;;23.90;54.37
11643;BME280;5877;50.930;6.918;2023-05-22T06:33:13;100805.19;;;24.29;53.97
11643;BME280;5877;50.930;6.918;2023-05-22T06:38:06;100721.97;;;23.60;54.36
11643;BME280;5877;50.930;6.918;2023-05-22T06:43:00;100685.22;;;23.01;55.27
11643;BME280;5877;50.930;6.918;2023-05-22T06:48:18;100773.41;;;23.62;54.51
11643;BME280;5877;50.930;6.918;2023-05-22T06:53:26;100812.28;;;23.09;57.77
11643;BME280;5877;50.930;6.918;2023-05-22T06:58:23;100797.88;;;22.86;58.25
11643;BME280;5877;50.930;6.918;2023-05-22T07:03:16;100830.31;;;23.22;57.70
11643;BME280;5877;50.930;6.918;2023-05-22T07:08:33;100835.50;;;22.94;58.85
11643;BME280;5877;50.930;6.918;2023-05-22T07:13:29;100814.34;;;22.74;59.73
11643;BME280;5877;50.930;6.918;2023-05-22T07:18:23;100724.66;;;22.77;57.26
11643;BME280;5877;50.930;6.918;2023-05-22T07:23:18;100848.25;;;23.73;55.95
11643;BME280;5877;50.930;6.918;2023-05-22T07:28:15;100836.03;;;23.67;56.30
11643;BME280;5877;50.930;6.918;2023-05-22T07:33:16;100813.66;;;23.90;54.95
11643;BME280;5877;50.930;6.918;2023-05-22T07:38:08;100816.50;;;23.80;55.12
11643;BME280;5877;50.930;6.918;2023-05-22T07:43:04;100847.56;;;24.13;54.74
11643;BME280;5877;50.930;6.918;2023-05-22T07:47:58;100844.28;;;24.16;54.87
11643;BME280;5877;50.930;6.918;2023-05-22T07:52:58;100798.38;;;24.04;54.04
11643;BME280;5877;50.930;6.918;2023-05-22T07:57:58;100803.16;;;24.07;54.55
11643;BME280;5877;50.930;6.918;2023-05-22T08:02:57;100800.97;;;24.09;54.43
11643;BME280;5877;50.930;6.918;2023-05-22T08:07:50;100832.44;;;24.04;54.95
11643;BME280;5877;50.930;6.918;2023-05-22T08:12:43;100853.59;;;24.05;55.61
11643;BME280;5877;50.930;6.918;2023-05-22T08:17:37;100815.25;;;23.58;55.75
11643;BME280;5877;50.930;6.918;2023-05-22T08:22:29;100826.28;;;23.57;55.89
11643;BME280;5877;50.930;6.918;2023-05-22T08:27:23;100820.91;;;23.57;55.22
11643;BME280;5877;50.930;6.918;2023-05-22T08:32:16;100865.94;;;24.20;54.70
11643;BME280;5877;50.930;6.918;2023-05-22T08:37:11;100865.97;;;24.75;52.41
11643;BME280;5877;50.930;6.918;2023-05-22T08:42:08;100817.84;;;24.78;51.09
11643;BME280;5877;50.930;6.918;2023-05-22T08:47:03;100863.09;;;24.71;52.05
11643;BME280;5877;50.930;6.918;2023-05-22T08:57:14;100819.50;;;24.38;52.34
11643;BME280;5877;50.930;6.918;2023-05-22T09:02:07;100784.63;;;23.78;52.79
11643;BME280;5877;50.930;6.918;2023-05-22T09:07:01;100877.81;;;24.46;52.85
11643;BME280;5877;50.930;6.918;2023-05-22T09:11:57;100766.03;;;23.22;53.74
11643;BME280;5877;50.930;6.918;2023-05-22T09:16:50;100721.09;;;22.62;54.80
11643;BME280;5877;50.930;6.918;2023-05-22T09:21:52;100765.47;;;22.87;55.38
11643;BME280;5877;50.930;6.918;2023-05-22T09:26:53;100885.28;;;24.03;54.04
11643;BME280;5877;50.930;6.918;2023-05-22T09:31:47;100888.34;;;23.64;55.13
11643;BME280;5877;50.930;6.918;2023-05-22T09:36:41;100890.03;;;23.92;54.08
11643;BME280;5877;50.930;6.918;2023-05-22T09:41:38;100885.16;;;23.94;54.18
11643;BME280;5877;50.930;6.918;2023-05-22T09:46:38;100804.38;;;23.69;52.37
11643;BME280;5877;50.930;6.918;2023-05-22T09:51:32;100894.13;;;24.04;53.01
11643;BME280;5877;50.930;6.918;2023-05-22T09:56:26;100830.69;;;23.67;52.96
11643;BME280;5877;50.930;6.918;2023-05-22T10:01:30;100839.00;;;23.14;54.38
11643;BME280;5877;50.930;6.918;2023-05-22T10:06:27;100747.91;;;22.81;54.04
11643;BME280;5877;50.930;6.918;2023-05-22T10:11:22;100743.28;;;22.44;54.79
11643;BME280;5877;50.930;6.918;2023-05-22T10:16:16;100834.25;;;23.62;53.56
11643;BME280;5877;50.930;6.918;2023-05-22T10:21:09;100727.47;;;23.37;51.78
11643;BME280;5877;50.930;6.918;2023-05-22T10:26:05;100739.63;;;23.61;51.32
11643;BME280;5877;50.930;6.918;2023-05-22T10:31:08;100900.59;;;24.90;50.94
11643;BME280;5877;50.930;6.918;2023-05-22T10:36:09;100846.06;;;25.03;49.72
11643;BME280;5877;50.930;6.918;2023-05-22T10:41:07;100894.28;;;26.11;47.97
11643;BME280;5877;50.930;6.918;2023-05-22T10:46:05;100900.34;;;26.48;46.09
11643;BME280;5877;50.930;6.918;2023-05-22T10:51:05;100886.16;;;25.94;47.34
11643;BME280;5877;50.930;6.918;2023-05-22T10:56:13;100881.16;;;25.79;47.71
11643;BME280;5877;50.930;6.918;2023-05-22T11:01:25;100861.53;;;25.56;48.08
11643;BME280;5877;50.930;6.918;2023-05-22T11:11:38;100805.34;;;26.56;44.50
11643;BME280;5877;50.930;6.918;2023-05-22T11:16:32;100832.59;;;26.63;44.96
11643;BME280;5877;50.930;6.918;2023-05-22T11:21:28;100876.81;;;26.71;45.50
11643;BME280;5877;50.930;6.918;2023-05-22T11:26:21;100870.78;;;26.65;45.26
11643;BME280;5877;50.930;6.918;2023-05-22T11:31:26;100866.25;;;26.04;47.05
11643;BME280;5877;50.930;6.918;2023-05-22T11:36:22;100675.91;;;25.30;45.50
11643;BME280;5877;50.930;6.918;2023-05-22T11:41:19;100870.19;;;26.85;45.18
11643;BME280;5877;50.930;6.918;2023-05-22T11:46:14;100841.75;;;26.45;45.44
11643;BME280;5877;50.930;6.918;2023-05-22T11:51:08;100869.88;;;25.99;46.75
11643;BME280;5877;50.930;6.918;2023-05-22T11:56:03;100761.75;;;25.58;46.79
11643;BME280;5877;50.930;6.918;2023-05-22T12:01:02;100843.22;;;26.60;45.90
11643;BME280;5877;50.930;6.918;2023-05-22T12:05:58;100801.91;;;26.81;44.45
11643;BME280;5877;50.930;6.918;2023-05-22T12:10:53;100787.50;;;27.29;43.75
11643;BME280;5877;50.930;6.918;2023-05-22T12:15:47;100774.94;;;26.64;44.68
11643;BME280;5877;50.930;6.918;2023-05-22T12:20:45;100830.41;;;26.65;45.44
11643;BME280;5877;50.930;6.918;2023-05-22T12:25:39;100793.31;;;26.53;45.27
11643;BME280;5877;50.930;6.918;2023-05-22T12:30:39;100766.38;;;25.97;46.62
11643;BME280;5877;50.930;6.918;2023-05-22T12:35:40;100752.78;;;25.93;47.10
11643;BME280;5877;50.930;6.918;2023-05-22T12:40:33;100752.25;;;25.29;48.43
11643;BME280;5877;50.930;6.918;2023-05-22T12:45:26;100707.56;;;25.11;48.82
11643;BME280;5877;50.930;6.918;2023-05-22T12:50:18;100661.63;;;24.54;48.82
11643;BME280;5877;50.930;6.918;2023-05-22T12:55:15;100768.25;;;25.34;49.47
11643;BME280;5877;50.930;6.918;2023-05-22T13:00:12;100770.25;;;25.73;48.35
11643;BME280;5877;50.930;6.918;2023-05-22T13:05:06;100758.69;;;25.50;48.37
11643;BME280;5877;50.930;6.918;2023-05-22T13:09:58;100723.34;;;24.90;50.43
11643;BME280;5877;50.930;6.918;2023-05-22T13:14:51;100813.44;;;25.54;50.07
11643;BME280;5877;50.930;6.918;2023-05-22T13:19:44;100810.88;;;25.49;50.46
11643;BME280;5877;50.930;6.918;2023-05-22T13:24:39;100815.34;;;25.76;49.61
11643;BME280;5877;50.930;6.918;2023-05-22T13:29:32;100819.97;;;25.62;49.77
11643;BME280;5877;50.930;6.918;2023-05-22T13:34:24;100731.84;;;25.28;49.65
11643;BME280;5877;50.930;6.918;2023-05-22T13:39:19;100828.34;;;25.61;49.14
11643;BME280;5877;50.930;6.918;2023-05-22T13:44:12;100836.28;;;25.21;50.59
11643;BME280;5877;50.930;6.918;2023-05-22T13:49:08;100789.13;;;25.15;49.70
11643;BME280;5877;50.930;6.918;2023-05-22T13:54:01;100790.47;;;25.26;49.63
11643;BME280;5877;50.930;6.918;2023-05-22T13:58:57;100816.88;;;25.46;49.70
11643;BME280;5877;50.930;6.918;2023-05-22T14:03:49;100833.09;;;25.64;49.59
11643;BME280;5877;50.930;6.918;2023-05-22T14:08:42;100642.28;;;24.43;50.37
11643;BME280;5877;50.930;6.918;2023-05-22T14:13:35;100757.34;;;24.95;49.93
11643;BME280;5877;50.930;6.918;2023-05-22T14:18:29;100717.34;;;25.07;48.60
11643;BME280;5877;50.930;6.918;2023-05-22T14:23:24;100805.88;;;25.34;49.83
11643;BME280;5877;50.930;6.918;2023-05-22T14:28:19;100829.75;;;25.58;49.61
11643;BME280;5877;50.930;6.918;2023-05-22T14:33:13;100783.75;;;25.60;49.22
11643;BME280;5877;50.930;6.918;2023-05-22T14:38:08;100730.69;;;25.43;48.71
11643;BME280;5877;50.930;6.918;2023-05-22T14:43:02;100818.38;;;25.83;49.09
11643;BME280;5877;50.930;6.918;2023-05-22T14:47:55;100797.91;;;25.07;51.09
11643;BME280;5877;50.930;6.918;2023-05-22T14:52:53;100751.28;;;25.03;51.06
11643;BME280;5877;50.930;6.918;2023-05-22T14:57:56;100751.41;;;25.20;50.73
11643;BME280;5877;50.930;6.918;2023-05-22T15:02:51;100773.97;;;25.41;50.64
11643;BME280;5877;50.930;6.918;2023-05-22T15:07:44;100747.22;;;24.91;51.56
11643;BME280;5877;50.930;6.918;2023-05-22T15:12:40;100804.75;;;25.58;50.94
11643;BME280;5877;50.930;6.918;2023-05-22T15:17:36;100739.47;;;25.35;50.38
11643;BME280;5877;50.930;6.918;2023-05-22T15:22:33;100782.53;;;25.66;51.06
11643;BME280;5877;50.930;6.918;2023-05-22T15:27:32;100738.16;;;25.54;50.29
11643;BME280;5877;50.930;6.918;2023-05-22T15:32:32;100737.72;;;25.92;50.00
11643;BME280;5877;50.930;6.918;2023-05-22T15:37:26;100772.25;;;26.07;49.68
11643;BME280;5877;50.930;6.918;2023-05-22T15:42:22;100765.38;;;25.84;50.16
11643;BME280;5877;50.930;6.918;2023-05-22T15:47:15;100665.19;;;25.08;50.45
11643;BME280;5877;50.930;6.918;2023-05-22T15:52:07;100711.28;;;25.23;51.12
11643;BME280;5877;50.930;6.918;2023-05-22T15:57:00;100716.69;;;24.87;51.82
11643;BME280;5877;50.930;6.918;2023-05-22T16:01:55;100738.03;;;25.29;51.21
11643;BME280;5877;50.930;6.918;2023-05-22T16:06:49;100765.66;;;25.51;50.75
11643;BME280;5877;50.930;6.918;2023-05-22T16:11:43;100673.84;;;24.82;51.48
11643;BME280;5877;50.930;6.918;2023-05-22T16:16:35;100660.66;;;24.50;51.90
11643;BME280;5877;50.930;6.918;2023-05-22T16:21:28;100737.97;;;25.20;51.80
11643;BME280;5877;50.930;6.918;2023-05-22T16:26:23;100594.56;;;24.04;51.82
11643;BME280;5877;50.930;6.918;2023-05-22T16:31:19;100752.63;;;24.78;52.80
11643;BME280;5877;50.930;6.918;2023-05-22T16:36:13;100784.13;;;24.86;53.02
11643;BME280;5877;50.930;6.918;2023-05-22T16:41:05;100717.25;;;24.26;53.36
11643;BME280;5877;50.930;6.918;2023-05-22T16:45:59;100598.19;;;23.45;53.87
11643;BME280;5877;50.930;6.918;2023-05-22T16:50:52;100557.69;;;22.91;54.63
11643;BME280;5877;50.930;6.918;2023-05-22T16:55:45;100790.34;;;24.04;55.72
11643;BME280;5877;50.930;6.918;2023-05-22T17:00:40;100786.69;;;24.27;55.02
11643;BME280;5877;50.930;6.918;2023-05-22T17:05:34;100749.91;;;23.87;55.47
11643;BME280;5877;50.930;6.918;2023-05-22T17:10:29;100790.44;;;23.99;56.62
11643;BME280;5877;50.930;6.918;2023-05-22T17:15:24;100764.38;;;23.72;57.03
11643;BME280;5877;50.930;6.918;2023-05-22T17:20:21;100807.66;;;23.66;57.82
11643;BME280;5877;50.930;6.918;2023-05-22T17:25:15;100810.91;;;23.62;57.82
11643;BME280;5877;50.930;6.918;2023-05-22T17:30:09;100801.28;;;23.61;57.59
11643;BME280;5877;50.930;6.918;2023-05-22T17:35:03;100633.09;;;22.42;58.13
11643;BME280;5877;50.930;6.918;2023-05-22T17:40:01;100810.19;;;23.24;58.79
11643;BME280;5877;50.930;6.918;2023-05-22T17:44:55;100815.47;;;23.11;59.20
11643;BME280;5877;50.930;6.918;2023-05-22T17:49:48;100647.91;;;21.92;59.66
11643;BME280;5877;50.930;6.918;2023-05-22T17:54:41;100735.72;;;22.27;60.74
11643;BME280;5877;50.930;6.918;2023-05-22T17:59:34;100806.81;;;22.76;60.44
11643;BME280;5877;50.930;6.918;2023-05-22T18:04:32;100779.97;;;22.62;60.26
11643;BME280;5877;50.930;6.918;2023-05-22T18:09:25;100786.25;;;22.53;59.89
11643;BME280;5877;50.930;6.918;2023-05-22T18:14:20;100836.50;;;22.56;61.80
11643;BME280;5877;50.930;6.918;2023-05-22T18:19:16;100842.53;;;22.43;62.11
11643;BME280;5877;50.930;6.918;2023-05-22T18:24:12;100833.25;;;22.11;63.17
11643;BME280;5877;50.930;6.918;2023-05-22T18:29:04;100841.50;;;22.15;62.53
11643;BME280;5877;50.930;6.918;2023-05-22T18:33:57;100831.88;;;21.85;61.08
11643;BME280;5877;50.930;6.918;2023-05-22T18:38:50;100851.78;;;21.68;61.23
11643;BME280;5877;50.930;6.918;2023-05-22T18:43:42;100874.34;;;21.52;61.42
11643;BME280;5877;50.930;6.918;2023-05-22T18:48:39;100718.13;;;20.17;62.12
11643;BME280;5877;50.930;6.918;2023-05-22T18:53:45;100883.94;;;20.99;62.04
11643;BME280;5877;50.930;6.918;2023-05-22T18:58:42;100688.19;;;19.45;63.16
11643;BME280;5877;50.930;6.918;2023-05-22T19:03:36;100910.28;;;20.56;64.80
11643;BME280;5877;50.930;6.918;2023-05-22T19:08:30;100853.81;;;20.14;65.88
11643;BME280;5877;50.930;6.918;2023-05-22T19:13:24;100913.22;;;20.34;66.91
11643;BME280;5877;50.930;6.918;2023-05-22T19:18:16;100882.06;;;19.89;68.23
11643;BME280;5877;50.930;6.918;2023-05-22T19:23:11;100863.16;;;19.60;68.74
11643;BME280;5877;50.930;6.918;2023-05-22T19:28:04;100882.78;;;19.44;69.70
11643;BME280;5877;50.930;6.918;2023-05-22T19:32:57;100903.03;;;19.45;70.41
11643;BME280;5877;50.930;6.918;2023-05-22T19:37:50;100838.22;;;18.94;70.91
11643;BME280;5877;50.930;6.918;2023-05-22T19:42:44;100940.31;;;19.50;72.03
11643;BME280;5877;50.930;6.918;2023-05-22T19:47:36;100967.75;;;19.51;72.41
11643;BME280;5877;50.930;6.918;2023-05-22T19:52:29;100805.84;;;18.49;73.08
11643;BME280;5877;50.930;6.918;2023-05-22T19:57:24;100975.72;;;19.45;74.35
11643;BME280;5877;50.930;6.918;2023-05-22T20:02:19;100942.44;;;19.43;74.15
11643;BME280;5877;50.930;6.918;2023-05-22T20:07:13;100830.72;;;18.80;73.21
11643;BME280;5877;50.930;6.918;2023-05-22T20:12:08;100944.56;;;19.46;73.70
11643;BME280;5877;50.930;6.918;2023-05-22T20:17:02;100984.50;;;19.51;74.72
11643;BME280;5877;50.930;6.918;2023-05-22T20:21:54;100930.28;;;19.00;75.95
11643;BME280;5877;50.930;6.918;2023-05-22T20:26:48;100950.19;;;18.92;76.91
11643;BME280;5877;50.930;6.918;2023-05-22T20:31:41;100937.69;;;18.88;77.27
11643;BME280;5877;50.930;6.918;2023-05-22T20:36:34;100996.88;;;19.15;77.86
11643;BME280;5877;50.930;6.918;2023-05-22T20:41:27;100994.66;;;18.97;79.50
11643;BME280;5877;50.930;6.918;2023-05-22T20:46:19;100999.38;;;18.85;80.24
11643;BME280;5877;50.930;6.918;2023-05-22T20:51:16;101003.31;;;18.77;81.35
11643;BME280;5877;50.930;6.918;2023-05-22T20:56:11;100992.00;;;18.60;81.90
11643;BME280;5877;50.930;6.918;2023-05-22T21:01:03;101009.88;;;18.64;82.10
11643;BME280;5877;50.930;6.918;2023-05-22T21:05:56;101004.75;;;18.58;82.89
11643;BME280;5877;50.930;6.918;2023-05-22T21:10:48;100954.75;;;18.17;84.21
11643;BME280;5877;50.930;6.918;2023-05-22T21:15:42;101001.94;;;18.37;85.92
11643;BME280;5877;50.930;6.918;2023-05-22T21:20:34;100986.34;;;18.14;87.36
11643;BME280;5877;50.930;6.918;2023-05-22T21:25:27;100943.72;;;17.72;88.71
11643;BME280;5877;50.930;6.918;2023-05-22T21:30:19;101007.44;;;17.99;90.13
11643;BME280;5877;50.930;6.918;2023-05-22T21:35:11;100992.06;;;17.74;87.87
11643;BME280;5877;50.930;6.918;2023-05-22T21:40:03;100862.94;;;16.92;84.67
11643;BME280;5877;50.930;6.918;2023-05-22T21:44:56;101014.22;;;17.84;82.65
11643;BME280;5877;50.930;6.918;2023-05-22T21:49:49;101009.03;;;17.73;81.37
11643;BME280;5877;50.930;6.918;2023-05-22T21:54:43;101026.13;;;17.60;79.87
11643;BME280;5877;50.930;6.918;2023-05-22T21:59:34;101034.59;;;17.57;78.29
11643;BME280;5877;50.930;6.918;2023-05-22T22:04:27;101024.22;;;17.34;76.90
11643;BME280;5877;50.930;6.918;2023-05-22T22:09:18;100859.47;;;16.31;74.70
11643;BME280;5877;50.930;6.918;2023-05-22T22:14:10;101044.13;;;17.36;74.87
11643;BME280;5877;50.930;6.918;2023-05-22T22:19:03;100984.44;;;16.95;73.57
11643;BME280;5877;50.930;6.918;2023-05-22T22:23:57;101015.91;;;17.08;73.29
11643;BME280;5877;50.930;6.918;2023-05-22T22:28:49;101048.63;;;17.14;73.29
11643;BME280;5877;50.930;6.918;2023-05-22T22:33:42;101024.59;;;17.04;72.86
11643;BME280;5877;50.930;6.918;2023-05-22T22:38:34;100954.03;;;16.47;74.02
11643;BME280;5877;50.930;6.918;2023-05-22T22:43:29;101064.00;;;16.95;76.04
11643;BME280;5877;50.930;6.918;2023-05-22T22:48:22;101034.06;;;16.49;78.98
11643;BME280;5877;50.930;6.918;2023-05-22T22:53:15;101056.22;;;16.43;82.62
11643;BME280;5877;50.930;6.918;2023-05-22T22:58:07;101007.09;;;15.90;86.58
11643;BME280;5877;50.930;6.918;2023-05-22T23:03:01;101025.97;;;15.94;88.21
11643;BME280;5877;50.930;6.918;2023-05-22T23:07:53;101006.00;;;15.75;89.20
11643;BME280;5877;50.930;6.918;2023-05-22T23:12:49;101006.16;;;15.68;90.36
11643;BME280;5877;50.930;6.918;2023-05-22T23:17:42;101016.06;;;15.61;91.32
11643;BME280;5877;50.930;6.918;2023-05-22T23:22:35;101097.22;;;15.96;92.57
11643;BME280;5877;50.930;6.918;2023-05-22T23:27:28;101044.25;;;15.55;92.53
11643;BME280;5877;50.930;6.918;2023-05-22T23:32:22;101019.00;;;15.36;91.88
11643;BME280;5877;50.930;6.918;2023-05-22T23:37:14;100989.94;;;15.13;90.56
11643;BME280;5877;50.930;6.918;2023-05-22T23:42:06;101107.34;;;15.87;90.55
11643;BME280;5877;50.930;6.918;2023-05-22T23:47:01;101090.25;;;15.66;90.70
11643;BME280;5877;50.930;6.918;2023-05-22T23:51:54;101105.00;;;15.62;90.39
11643;BME280;5877;50.930;6.918;2023-05-22T23:56:46;101120.88;;;15.50;91.34
